createdAt,value
2019-02-25T00:00:15.160Z,10.23
2019-02-25T00:01:27.508Z,9.63
2019-02-25T00:02:32.656Z,9.28
2019-02-25T00:03:37.530Z,8.83
2019-02-25T00:04:42.497Z,9.55
2019-02-25T00:05:47.495Z,9.13
2019-02-25T00:06:52.214Z,11.55
2019-02-25T00:07:57.234Z,12.58
2019-02-25T00:09:02.480Z,10.43
2019-02-25T00:10:07.681Z,9.58
2019-02-25T00:11:12.982Z,7.45
2019-02-25T00:12:18.267Z,10.55
2019-02-25T00:13:23.225Z,9.65
2019-02-25T00:14:28.480Z,10.10
2019-02-25T00:15:33.466Z,8.60
2019-02-25T00:16:38.717Z,9.83
2019-02-25T00:17:44.224Z,8.35
2019-02-25T00:18:49.481Z,10.78
2019-02-25T00:19:54.178Z,9.60
2019-02-25T00:20:59.070Z,8.30
2019-02-25T00:22:04.065Z,11.65
2019-02-25T00:23:09.309Z,9.70
2019-02-25T00:24:14.559Z,8.75
2019-02-25T00:25:19.541Z,10.75
2019-02-25T00:26:24.503Z,9.38
2019-02-25T00:27:29.779Z,7.78
2019-02-25T00:28:34.513Z,8.90
2019-02-25T00:29:39.006Z,8.63
2019-02-25T00:30:43.977Z,10.20
2019-02-25T00:31:49.252Z,11.43
2019-02-25T00:32:54.491Z,7.47
2019-02-25T00:34:00.039Z,8.88
2019-02-25T00:35:04.601Z,9.80
2019-02-25T00:36:09.340Z,10.90
2019-02-25T00:37:14.359Z,9.20
2019-02-25T00:38:19.021Z,10.00
2019-02-25T00:39:24.323Z,12.70
2019-02-25T00:40:29.998Z,9.20
2019-02-25T00:41:34.958Z,9.18
2019-02-25T00:42:40.271Z,9.75
2019-02-25T00:43:45.278Z,8.50
2019-02-25T00:44:50.519Z,10.13
2019-02-25T00:45:55.514Z,9.18
2019-02-25T00:47:00.200Z,11.40
2019-02-25T00:48:04.885Z,9.00
2019-02-25T00:49:09.723Z,8.78
2019-02-25T00:50:15.012Z,11.30
2019-02-25T00:51:20.089Z,9.98
2019-02-25T00:52:25.315Z,8.78
2019-02-25T00:53:30.532Z,9.53
2019-02-25T00:54:35.815Z,9.00
2019-02-25T00:55:40.804Z,8.83
2019-02-25T00:56:45.511Z,9.33
2019-02-25T00:57:50.901Z,9.63
2019-02-25T00:58:56.094Z,9.08
2019-02-25T01:00:01.407Z,7.72
2019-02-25T01:01:06.496Z,8.38
2019-02-25T01:02:11.285Z,8.85
2019-02-25T01:03:16.558Z,9.50
2019-02-25T01:04:21.886Z,9.00
2019-02-25T01:05:27.151Z,9.50
2019-02-25T01:06:32.126Z,10.00
2019-02-25T01:07:37.361Z,12.03
2019-02-25T01:08:42.340Z,7.70
2019-02-25T01:09:47.283Z,8.08
2019-02-25T01:10:52.274Z,10.48
2019-02-25T01:11:57.234Z,10.03
2019-02-25T01:13:02.203Z,7.78
2019-02-25T01:14:06.873Z,9.68
2019-02-25T01:15:12.307Z,9.00
2019-02-25T01:16:17.009Z,10.08
2019-02-25T01:17:22.251Z,9.25
2019-02-25T01:18:27.175Z,9.33
2019-02-25T01:19:31.879Z,10.15
2019-02-25T01:20:37.147Z,9.48
2019-02-25T01:21:42.197Z,8.95
2019-02-25T01:22:46.868Z,9.78
2019-02-25T01:23:51.922Z,7.97
2019-02-25T01:24:56.920Z,10.13
2019-02-25T01:26:01.877Z,9.73
2019-02-25T01:27:06.875Z,9.18
2019-02-25T01:28:12.170Z,9.10
2019-02-25T01:29:17.140Z,7.58
2019-02-25T01:30:22.338Z,8.65
2019-02-25T01:31:27.943Z,8.20
2019-02-25T01:32:32.993Z,8.73
2019-02-25T01:33:37.973Z,9.13
2019-02-25T01:34:42.972Z,8.43
2019-02-25T01:35:48.256Z,9.75
2019-02-25T01:36:53.533Z,9.60
2019-02-25T01:37:58.505Z,11.70
2019-02-25T01:39:04.007Z,7.92
2019-02-25T01:40:09.866Z,10.88
2019-02-25T01:41:14.833Z,7.78
2019-02-25T01:42:20.086Z,9.75
2019-02-25T01:43:25.383Z,8.63
2019-02-25T01:44:30.432Z,8.58
2019-02-25T01:45:35.459Z,7.97
2019-02-25T01:46:40.451Z,9.28
2019-02-25T01:47:45.700Z,8.75
2019-02-25T01:48:50.662Z,8.03
2019-02-25T01:49:56.200Z,9.38
2019-02-25T01:51:01.191Z,8.20
2019-02-25T01:52:06.587Z,10.75
2019-02-25T01:53:11.605Z,7.92
2019-02-25T01:54:16.570Z,7.67
2019-02-25T01:55:21.570Z,10.25
2019-02-25T01:56:26.867Z,7.40
2019-02-25T01:57:31.846Z,7.08
2019-02-25T01:58:36.802Z,7.50
2019-02-25T01:59:42.092Z,8.15
2019-02-25T02:00:47.082Z,8.15
2019-02-25T02:01:52.842Z,9.40
2019-02-25T02:02:57.663Z,7.87
2019-02-25T02:04:02.640Z,8.45
2019-02-25T02:05:09.634Z,10.00
2019-02-25T02:06:14.632Z,7.72
2019-02-25T02:07:20.152Z,8.20
2019-02-25T02:08:25.312Z,7.72
2019-02-25T02:09:30.313Z,8.95
2019-02-25T02:10:35.544Z,8.03
2019-02-25T02:11:41.235Z,8.05
2019-02-25T02:12:46.235Z,7.15
2019-02-25T02:13:51.206Z,7.55
2019-02-25T02:14:56.440Z,6.97
2019-02-25T02:16:01.425Z,7.42
2019-02-25T02:17:06.570Z,9.05
2019-02-25T02:18:11.557Z,8.88
2019-02-25T02:19:16.554Z,8.15
2019-02-25T02:20:21.252Z,7.17
2019-02-25T02:21:26.248Z,6.87
2019-02-25T02:22:31.025Z,7.08
2019-02-25T02:23:35.466Z,9.60
2019-02-25T02:24:40.447Z,8.28
2019-02-25T02:25:46.033Z,7.60
2019-02-25T02:26:50.559Z,8.90
2019-02-25T02:27:55.020Z,8.25
2019-02-25T02:29:00.593Z,8.05
2019-02-25T02:30:06.597Z,9.15
2019-02-25T02:31:11.574Z,9.05
2019-02-25T02:32:16.573Z,8.18
2019-02-25T02:33:21.913Z,9.05
2019-02-25T02:34:27.443Z,8.28
2019-02-25T02:35:32.443Z,8.78
2019-02-25T02:36:37.193Z,6.75
2019-02-25T02:37:42.777Z,10.03
2019-02-25T02:38:49.041Z,9.43
2019-02-25T02:39:54.321Z,7.12
2019-02-25T02:40:59.019Z,6.67
2019-02-25T02:42:13.311Z,8.98
2019-02-25T02:43:18.496Z,6.87
2019-02-25T02:44:23.466Z,7.65
2019-02-25T02:45:43.395Z,7.28
2019-02-25T02:47:15.121Z,7.03
2019-02-25T02:48:33.336Z,7.30
2019-02-25T02:49:38.375Z,6.97
2019-02-25T02:50:43.632Z,6.78
2019-02-25T02:51:48.957Z,8.10
2019-02-25T02:52:53.939Z,7.65
2019-02-25T02:53:58.984Z,7.92
2019-02-25T02:55:03.770Z,7.75
2019-02-25T02:56:10.782Z,6.80
2019-02-25T02:57:15.748Z,6.83
2019-02-25T02:58:20.989Z,7.00
2019-02-25T02:59:26.261Z,7.22
2019-02-25T03:00:31.496Z,7.70
2019-02-25T03:01:36.467Z,6.62
2019-02-25T03:02:41.717Z,8.30
2019-02-25T03:03:47.259Z,6.95
2019-02-25T03:04:52.230Z,7.97
2019-02-25T03:05:57.239Z,6.40
2019-02-25T03:07:02.224Z,6.70
2019-02-25T03:08:07.227Z,6.58
2019-02-25T03:09:12.238Z,6.90
2019-02-25T03:10:18.821Z,6.95
2019-02-25T03:11:24.045Z,7.80
2019-02-25T03:12:29.310Z,8.15
2019-02-25T03:13:34.846Z,6.87
2019-02-25T03:14:40.122Z,9.15
2019-02-25T03:15:45.149Z,8.33
2019-02-25T03:16:50.485Z,6.90
2019-02-25T03:17:56.014Z,6.37
2019-02-25T03:19:01.007Z,7.78
2019-02-25T03:20:06.389Z,6.62
2019-02-25T03:21:11.631Z,7.85
2019-02-25T03:22:16.616Z,7.17
2019-02-25T03:23:21.872Z,7.37
2019-02-25T03:24:26.620Z,7.70
2019-02-25T03:25:31.344Z,9.58
2019-02-25T03:26:36.589Z,6.95
2019-02-25T03:27:41.548Z,7.08
2019-02-25T03:28:46.818Z,7.22
2019-02-25T03:29:51.291Z,7.03
2019-02-25T03:30:56.255Z,6.85
2019-02-25T03:32:01.529Z,6.30
2019-02-25T03:33:06.283Z,7.80
2019-02-25T03:34:11.547Z,7.42
2019-02-25T03:35:16.413Z,8.98
2019-02-25T03:36:21.654Z,7.22
2019-02-25T03:37:26.892Z,9.53
2019-02-25T03:38:32.154Z,5.92
2019-02-25T03:39:36.838Z,8.13
2019-02-25T03:40:41.929Z,7.08
2019-02-25T03:41:47.196Z,9.43
2019-02-25T03:42:52.289Z,10.38
2019-02-25T03:43:58.277Z,7.55
2019-02-25T03:45:03.347Z,6.50
2019-02-25T03:46:09.447Z,8.85
2019-02-25T03:47:14.661Z,8.50
2019-02-25T03:48:19.903Z,7.90
2019-02-25T03:49:25.162Z,7.33
2019-02-25T03:50:30.415Z,8.13
2019-02-25T03:51:35.704Z,7.55
2019-02-25T03:52:40.963Z,7.50
2019-02-25T03:53:46.267Z,6.08
2019-02-25T03:54:51.713Z,7.15
2019-02-25T03:55:56.760Z,7.67
2019-02-25T03:57:02.363Z,8.45
2019-02-25T03:58:07.354Z,6.62
2019-02-25T03:59:12.324Z,8.50
2019-02-25T04:00:19.247Z,8.00
2019-02-25T04:01:24.234Z,7.12
2019-02-25T04:02:29.481Z,7.35
2019-02-25T04:03:35.004Z,7.28
2019-02-25T04:04:40.226Z,6.65
2019-02-25T04:05:45.212Z,9.45
2019-02-25T04:06:50.197Z,8.33
2019-02-25T04:07:54.675Z,8.33
2019-02-25T04:09:00.184Z,7.08
2019-02-25T04:10:06.089Z,7.85
2019-02-25T04:11:11.778Z,8.00
2019-02-25T04:12:17.059Z,7.85
2019-02-25T04:13:22.327Z,8.93
2019-02-25T04:14:27.878Z,6.53
2019-02-25T04:15:38.598Z,9.80
2019-02-25T04:16:43.589Z,6.30
2019-02-25T04:17:48.606Z,5.95
2019-02-25T04:18:53.863Z,6.75
2019-02-25T04:19:58.857Z,8.20
2019-02-25T04:21:03.822Z,9.20
2019-02-25T04:22:08.885Z,6.72
2019-02-25T04:23:14.181Z,11.28
2019-02-25T04:24:19.685Z,7.12
2019-02-25T04:25:25.248Z,8.75
2019-02-25T04:26:30.227Z,8.90
2019-02-25T04:27:34.926Z,7.58
2019-02-25T04:28:40.175Z,8.70
2019-02-25T04:29:45.653Z,7.70
2019-02-25T04:30:50.291Z,8.15
2019-02-25T04:31:55.545Z,8.58
2019-02-25T04:33:01.112Z,7.22
2019-02-25T04:34:05.567Z,10.85
2019-02-25T04:35:11.060Z,6.15
2019-02-25T04:36:16.314Z,8.48
2019-02-25T04:37:21.565Z,8.30
2019-02-25T04:38:28.035Z,7.10
2019-02-25T04:39:33.397Z,8.00
2019-02-25T04:40:38.946Z,7.25
2019-02-25T04:41:43.904Z,8.08
2019-02-25T04:42:49.176Z,7.37
2019-02-25T04:43:54.519Z,7.70
2019-02-25T04:44:59.845Z,7.97
2019-02-25T04:46:05.373Z,8.63
2019-02-25T04:47:10.669Z,7.47
2019-02-25T04:48:15.907Z,6.20
2019-02-25T04:49:21.167Z,7.87
2019-02-25T04:50:26.123Z,10.28
2019-02-25T04:51:31.384Z,7.78
2019-02-25T04:52:36.672Z,6.42
2019-02-25T04:53:41.942Z,8.65
2019-02-25T04:54:47.242Z,7.55
2019-02-25T04:55:52.271Z,8.68
2019-02-25T04:56:57.501Z,8.70
2019-02-25T04:58:02.526Z,8.80
2019-02-25T04:59:07.227Z,6.83
2019-02-25T05:00:14.305Z,6.85
2019-02-25T05:01:19.271Z,6.70
2019-02-25T05:02:24.802Z,5.87
2019-02-25T05:03:30.044Z,7.67
2019-02-25T05:04:36.798Z,7.15
2019-02-25T05:05:41.783Z,8.53
2019-02-25T05:06:46.843Z,9.33
2019-02-25T05:07:52.355Z,6.85
2019-02-25T05:08:57.024Z,7.30
2019-02-25T05:10:02.114Z,6.28
2019-02-25T05:11:07.074Z,7.25
2019-02-25T05:12:12.047Z,9.78
2019-02-25T05:13:17.111Z,8.18
2019-02-25T05:14:22.689Z,6.92
2019-02-25T05:15:28.168Z,8.65
2019-02-25T05:16:33.799Z,9.53
2019-02-25T05:17:39.324Z,8.93
2019-02-25T05:18:44.089Z,8.88
2019-02-25T05:19:48.831Z,6.78
2019-02-25T05:20:54.389Z,7.03
2019-02-25T05:22:00.133Z,9.13
2019-02-25T05:23:05.388Z,7.58
2019-02-25T05:24:10.755Z,7.60
2019-02-25T05:25:15.978Z,7.75
2019-02-25T05:26:21.310Z,7.12
2019-02-25T05:27:26.400Z,8.75
2019-02-25T05:28:31.638Z,7.10
2019-02-25T05:29:36.888Z,9.35
2019-02-25T05:30:42.148Z,12.53
2019-02-25T05:31:47.413Z,7.67
2019-02-25T05:32:52.663Z,5.90
2019-02-25T05:33:57.756Z,7.30
2019-02-25T05:35:02.756Z,6.83
2019-02-25T05:36:07.571Z,7.00
2019-02-25T05:37:12.537Z,9.48
2019-02-25T05:38:18.068Z,12.65
2019-02-25T05:39:23.372Z,8.58
2019-02-25T05:40:28.625Z,7.60
2019-02-25T05:41:33.886Z,6.08
2019-02-25T05:42:38.945Z,8.60
2019-02-25T05:43:43.629Z,7.70
2019-02-25T05:44:48.433Z,10.40
2019-02-25T05:45:53.383Z,8.68
2019-02-25T05:46:58.648Z,6.97
2019-02-25T05:48:03.919Z,6.78
2019-02-25T05:49:09.234Z,7.58
2019-02-25T05:50:14.685Z,6.67
2019-02-25T05:51:19.653Z,9.75
2019-02-25T05:52:24.451Z,7.62
2019-02-25T05:53:29.479Z,7.92
2019-02-25T05:54:34.161Z,8.18
2019-02-25T05:55:38.909Z,11.12
2019-02-25T05:56:43.892Z,7.85
2019-02-25T05:57:49.805Z,7.35
2019-02-25T05:58:55.059Z,6.25
2019-02-25T06:00:00.031Z,9.68
2019-02-25T06:01:05.141Z,7.78
2019-02-25T06:02:10.511Z,8.53
2019-02-25T06:03:15.585Z,9.70
2019-02-25T06:04:20.879Z,13.83
2019-02-25T06:05:25.892Z,6.40
2019-02-25T06:06:30.887Z,9.40
2019-02-25T06:07:35.571Z,14.73
2019-02-25T06:08:41.094Z,18.57
2019-02-25T06:09:46.134Z,19.02
2019-02-25T06:10:51.100Z,20.45
2019-02-25T06:11:55.797Z,19.95
2019-02-25T06:13:01.040Z,24.87
2019-02-25T06:14:09.761Z,27.25
2019-02-25T06:15:15.055Z,19.32
2019-02-25T06:16:20.334Z,14.15
2019-02-25T06:17:25.307Z,20.75
2019-02-25T06:18:30.312Z,17.73
2019-02-25T06:19:35.316Z,12.82
2019-02-25T06:20:40.581Z,11.85
2019-02-25T06:21:45.901Z,13.80
2019-02-25T06:22:50.856Z,14.43
2019-02-25T06:23:56.114Z,13.08
2019-02-25T06:25:01.143Z,15.23
2019-02-25T06:26:05.697Z,12.10
2019-02-25T06:27:10.459Z,17.07
2019-02-25T06:28:15.716Z,16.55
2019-02-25T06:29:20.691Z,15.05
2019-02-25T06:30:25.142Z,10.95
2019-02-25T06:31:30.191Z,12.30
2019-02-25T06:32:35.167Z,8.90
2019-02-25T06:33:40.331Z,10.48
2019-02-25T06:34:45.313Z,9.33
2019-02-25T06:35:50.268Z,14.05
2019-02-25T06:36:55.542Z,15.83
2019-02-25T06:38:01.100Z,10.72
2019-02-25T06:39:07.294Z,13.40
2019-02-25T06:40:15.680Z,17.85
2019-02-25T06:41:20.354Z,11.12
2019-02-25T06:42:25.612Z,10.75
2019-02-25T06:43:30.936Z,13.68
2019-02-25T06:44:36.272Z,15.00
2019-02-25T06:45:41.279Z,9.88
2019-02-25T06:46:45.968Z,15.00
2019-02-25T06:47:50.646Z,12.53
2019-02-25T06:48:56.208Z,14.78
2019-02-25T06:50:01.180Z,16.55
2019-02-25T06:51:07.354Z,16.25
2019-02-25T06:52:12.050Z,13.03
2019-02-25T06:53:16.726Z,7.42
2019-02-25T06:54:24.255Z,9.90
2019-02-25T06:55:29.245Z,9.95
2019-02-25T06:56:34.042Z,9.23
2019-02-25T06:57:38.722Z,9.28
2019-02-25T06:58:43.699Z,10.48
2019-02-25T06:59:48.400Z,9.33
2019-02-25T07:00:53.370Z,7.92
2019-02-25T07:01:57.877Z,9.90
2019-02-25T07:03:02.845Z,12.98
2019-02-25T07:04:22.740Z,9.93
2019-02-25T07:05:41.692Z,9.43
2019-02-25T07:06:55.154Z,10.13
2019-02-25T07:08:05.054Z,7.28
2019-02-25T07:09:17.884Z,8.45
2019-02-25T07:10:39.504Z,7.55
2019-02-25T07:11:50.458Z,11.30
2019-02-25T07:13:16.193Z,8.43
2019-02-25T07:14:31.912Z,7.03
2019-02-25T07:15:54.422Z,7.28
2019-02-25T07:17:33.732Z,15.05
2019-02-25T07:18:57.625Z,8.83
2019-02-25T07:20:30.353Z,7.58
2019-02-25T07:21:46.447Z,8.55
2019-02-25T07:23:03.521Z,8.90
2019-02-25T07:24:26.705Z,8.40
2019-02-25T07:26:05.455Z,9.70
2019-02-25T07:27:28.076Z,10.38
2019-02-25T07:28:51.664Z,10.55
2019-02-25T07:30:15.496Z,8.35
2019-02-25T07:31:39.626Z,9.95
2019-02-25T07:33:10.362Z,6.87
2019-02-25T07:34:28.930Z,8.45
2019-02-25T07:36:11.701Z,11.10
2019-02-25T07:37:35.039Z,15.43
2019-02-25T07:38:58.657Z,13.98
2019-02-25T07:40:22.345Z,8.43
2019-02-25T07:41:45.397Z,11.65
2019-02-25T07:43:12.349Z,11.55
2019-02-25T07:44:24.888Z,8.13
2019-02-25T07:45:51.568Z,9.98
2019-02-25T07:47:05.300Z,7.00
2019-02-25T07:48:35.678Z,8.85
2019-02-25T07:49:59.013Z,9.60
2019-02-25T07:51:10.198Z,9.13
2019-02-25T07:52:28.537Z,9.55
2019-02-25T07:53:52.018Z,10.65
2019-02-25T07:55:25.222Z,8.48
2019-02-25T07:56:38.170Z,8.43
2019-02-25T07:57:51.407Z,7.83
2019-02-25T07:59:18.311Z,8.03
2019-02-25T08:00:51.537Z,10.18
2019-02-25T08:02:18.890Z,9.65
2019-02-25T08:03:30.132Z,12.50
2019-02-25T08:05:03.365Z,9.35
2019-02-25T08:06:33.054Z,7.10
2019-02-25T08:07:50.278Z,7.00
2019-02-25T08:09:14.450Z,7.62
2019-02-25T08:10:35.064Z,7.55
2019-02-25T08:11:54.167Z,7.45
2019-02-25T08:13:16.738Z,8.35
2019-02-25T08:14:28.174Z,9.33
2019-02-25T08:15:50.998Z,5.80
2019-02-25T08:17:18.357Z,7.80
2019-02-25T08:18:42.196Z,8.70
2019-02-25T08:19:55.346Z,7.67
2019-02-25T08:21:28.578Z,7.83
2019-02-25T08:22:58.957Z,6.35
2019-02-25T08:24:30.605Z,6.03
2019-02-25T08:25:52.076Z,7.50
2019-02-25T08:27:18.756Z,8.30
2019-02-25T08:28:49.695Z,7.22
2019-02-25T08:30:12.972Z,6.20
2019-02-25T08:31:39.635Z,8.28
2019-02-25T08:32:54.411Z,11.10
2019-02-25T08:34:18.932Z,10.28
2019-02-25T08:36:07.762Z,9.70
2019-02-25T08:37:36.824Z,9.28
2019-02-25T08:39:10.020Z,6.20
2019-02-25T08:41:20.367Z,7.12
2019-02-25T08:42:32.482Z,7.42
2019-02-25T08:44:03.294Z,6.62
2019-02-25T08:45:29.875Z,8.83
2019-02-25T08:46:55.127Z,7.50
2019-02-25T08:48:04.336Z,8.18
2019-02-25T08:49:37.263Z,9.83
2019-02-25T08:50:41.989Z,7.35
2019-02-25T08:51:47.559Z,6.50
2019-02-25T08:52:52.530Z,6.72
2019-02-25T08:53:57.312Z,9.60
2019-02-25T08:55:01.990Z,9.35
2019-02-25T08:56:07.103Z,9.38
2019-02-25T08:57:12.371Z,10.13
2019-02-25T08:58:17.363Z,11.80
2019-02-25T08:59:22.929Z,8.85
2019-02-25T09:00:27.691Z,11.93
2019-02-25T09:01:32.113Z,7.70
2019-02-25T09:02:37.424Z,7.85
2019-02-25T09:03:42.123Z,9.45
2019-02-25T09:04:49.161Z,9.13
2019-02-25T09:05:53.931Z,7.95
2019-02-25T09:06:58.974Z,8.45
2019-02-25T09:08:03.689Z,8.25
2019-02-25T09:09:09.064Z,8.28
2019-02-25T09:10:14.818Z,7.67
2019-02-25T09:11:19.525Z,7.75
2019-02-25T09:12:25.085Z,7.17
2019-02-25T09:13:30.053Z,7.92
2019-02-25T09:14:35.585Z,7.75
2019-02-25T09:15:40.327Z,6.72
2019-02-25T09:16:45.297Z,7.95
2019-02-25T09:17:48.271Z,4.83
2019-02-25T09:18:52.984Z,7.67
2019-02-25T09:19:57.939Z,7.30
2019-02-25T09:21:03.185Z,8.35
2019-02-25T09:22:07.974Z,7.78
2019-02-25T09:23:13.469Z,8.98
2019-02-25T09:24:18.213Z,6.83
2019-02-25T09:25:22.704Z,8.13
2019-02-25T09:26:27.692Z,6.92
2019-02-25T09:27:32.708Z,7.53
2019-02-25T09:28:37.393Z,9.78
2019-02-25T09:29:42.390Z,7.22
2019-02-25T09:30:47.629Z,6.58
2019-02-25T09:31:52.615Z,8.45
2019-02-25T09:32:57.615Z,8.48
2019-02-25T09:34:02.870Z,8.70
2019-02-25T09:35:07.915Z,6.87
2019-02-25T09:36:12.603Z,5.53
2019-02-25T09:37:17.865Z,6.87
2019-02-25T09:38:23.703Z,7.15
2019-02-25T09:39:28.714Z,5.97
2019-02-25T09:40:33.995Z,7.35
2019-02-25T09:41:38.708Z,7.47
2019-02-25T09:42:43.439Z,5.80
2019-02-25T09:43:48.688Z,8.18
2019-02-25T09:44:53.695Z,5.20
2019-02-25T09:45:58.936Z,6.92
2019-02-25T09:47:05.174Z,5.53
2019-02-25T09:48:12.273Z,6.70
2019-02-25T09:49:16.951Z,7.10
2019-02-25T09:50:21.724Z,8.45
2019-02-25T09:51:26.301Z,4.12
2019-02-25T09:52:31.584Z,6.40
2019-02-25T09:53:36.728Z,7.17
2019-02-25T09:54:44.743Z,5.47
2019-02-25T09:55:49.700Z,7.47
2019-02-25T09:56:54.636Z,6.35
2019-02-25T09:57:59.630Z,5.40
2019-02-25T09:59:04.695Z,5.30
2019-02-25T10:00:12.605Z,7.83
2019-02-25T10:01:18.244Z,5.95
2019-02-25T10:02:24.785Z,6.80
2019-02-25T10:03:30.116Z,4.97
2019-02-25T10:04:35.375Z,9.53
2019-02-25T10:05:40.085Z,6.05
2019-02-25T10:06:45.048Z,4.60
2019-02-25T10:07:50.301Z,5.60
2019-02-25T10:08:55.302Z,5.08
2019-02-25T10:10:00.569Z,5.30
2019-02-25T10:11:05.311Z,4.85
2019-02-25T10:12:10.570Z,7.33
2019-02-25T10:13:15.867Z,4.85
2019-02-25T10:14:21.605Z,4.50
2019-02-25T10:15:26.686Z,5.55
2019-02-25T10:16:31.370Z,7.05
2019-02-25T10:17:36.644Z,5.33
2019-02-25T10:18:41.392Z,7.10
2019-02-25T10:19:47.169Z,5.12
2019-02-25T10:20:52.162Z,5.62
2019-02-25T10:21:56.874Z,5.65
2019-02-25T10:23:01.864Z,5.67
2019-02-25T10:24:06.895Z,4.40
2019-02-25T10:25:11.371Z,6.70
2019-02-25T10:26:16.994Z,5.75
2019-02-25T10:27:21.956Z,5.80
2019-02-25T10:28:27.501Z,5.25
2019-02-25T10:29:32.748Z,4.75
2019-02-25T10:30:37.756Z,7.03
2019-02-25T10:31:43.796Z,6.47
2019-02-25T10:32:48.593Z,5.80
2019-02-25T10:33:53.028Z,5.40
2019-02-25T10:34:57.715Z,6.25
2019-02-25T10:36:02.694Z,5.22
2019-02-25T10:37:08.967Z,6.65
2019-02-25T10:38:14.987Z,7.58
2019-02-25T10:39:20.239Z,4.65
2019-02-25T10:40:27.381Z,5.60
2019-02-25T10:41:31.105Z,5.78
2019-02-25T10:42:37.709Z,4.87
2019-02-25T10:43:42.772Z,7.33
2019-02-25T10:44:48.026Z,4.72
2019-02-25T10:45:52.704Z,6.28
2019-02-25T10:46:57.394Z,5.25
2019-02-25T10:48:02.345Z,7.12
2019-02-25T10:49:11.517Z,4.72
2019-02-25T10:50:16.359Z,4.40
2019-02-25T10:51:20.842Z,5.37
2019-02-25T10:52:25.534Z,4.80
2019-02-25T10:53:30.258Z,6.65
2019-02-25T10:54:35.470Z,3.50
2019-02-25T10:55:46.712Z,4.05
2019-02-25T10:56:55.859Z,4.80
2019-02-25T10:58:03.654Z,3.60
2019-02-25T10:59:08.411Z,4.05
2019-02-25T11:00:15.194Z,5.03
2019-02-25T11:01:22.249Z,4.62
2019-02-25T11:02:27.121Z,6.50
2019-02-25T11:03:32.118Z,3.77
2019-02-25T11:04:37.428Z,4.60
2019-02-25T11:05:42.146Z,4.40
2019-02-25T11:06:47.239Z,8.03
2019-02-25T11:07:52.610Z,6.40
2019-02-25T11:09:06.890Z,4.65
2019-02-25T11:10:24.088Z,6.35
2019-02-25T11:11:32.251Z,4.42
2019-02-25T11:12:37.216Z,5.55
2019-02-25T11:13:41.917Z,5.05
2019-02-25T11:14:46.374Z,3.52
2019-02-25T11:15:50.853Z,3.45
2019-02-25T11:16:56.070Z,4.65
2019-02-25T11:18:00.853Z,5.20
2019-02-25T11:19:05.851Z,5.25
2019-02-25T11:20:11.187Z,3.33
2019-02-25T11:21:16.404Z,5.22
2019-02-25T11:22:21.136Z,4.72
2019-02-25T11:23:26.123Z,6.17
2019-02-25T11:24:32.285Z,4.40
2019-02-25T11:25:36.972Z,4.08
2019-02-25T11:26:45.742Z,4.15
2019-02-25T11:27:51.367Z,5.70
2019-02-25T11:28:56.704Z,4.05
2019-02-25T11:30:01.985Z,3.87
2019-02-25T11:31:07.349Z,4.47
2019-02-25T11:32:12.299Z,6.75
2019-02-25T11:33:17.554Z,4.55
2019-02-25T11:34:22.933Z,5.03
2019-02-25T11:35:28.037Z,4.25
2019-02-25T11:36:33.300Z,4.37
2019-02-25T11:37:38.344Z,4.72
2019-02-25T11:38:43.593Z,5.25
2019-02-25T11:39:49.155Z,5.25
2019-02-25T11:40:55.940Z,5.58
2019-02-25T11:42:02.830Z,4.12
2019-02-25T11:43:08.408Z,4.50
2019-02-25T11:44:14.010Z,3.33
2019-02-25T11:45:18.691Z,2.70
2019-02-25T11:46:23.677Z,2.72
2019-02-25T11:47:28.349Z,3.42
2019-02-25T11:48:33.369Z,2.83
2019-02-25T11:49:38.402Z,3.35
2019-02-25T11:50:44.858Z,3.62
2019-02-25T11:51:50.292Z,3.12
2019-02-25T11:52:55.557Z,4.35
2019-02-25T11:54:00.290Z,5.42
2019-02-25T11:55:05.412Z,4.12
2019-02-25T11:56:10.112Z,4.83
2019-02-25T11:57:14.851Z,2.50
2019-02-25T11:58:19.862Z,2.27
2019-02-25T11:59:25.485Z,5.30
2019-02-25T12:00:30.703Z,3.83
2019-02-25T12:01:36.011Z,2.22
2019-02-25T12:02:41.094Z,2.55
2019-02-25T12:03:46.424Z,2.00
2019-02-25T12:04:51.408Z,2.45
2019-02-25T12:05:56.684Z,2.80
2019-02-25T12:07:01.655Z,2.75
2019-02-25T12:08:06.422Z,2.98
2019-02-25T12:09:11.707Z,4.22
2019-02-25T12:10:17.047Z,2.17
2019-02-25T12:11:22.315Z,2.87
2019-02-25T12:12:27.711Z,3.60
2019-02-25T12:13:32.713Z,3.95
2019-02-25T12:14:37.977Z,3.67
2019-02-25T12:15:42.961Z,2.40
2019-02-25T12:16:48.357Z,3.15
2019-02-25T12:17:53.507Z,2.83
2019-02-25T12:18:58.259Z,6.55
2019-02-25T12:20:03.527Z,4.60
2019-02-25T12:21:09.082Z,2.70
2019-02-25T12:22:14.307Z,2.50
2019-02-25T12:23:19.032Z,5.05
2019-02-25T12:24:24.079Z,2.50
2019-02-25T12:25:29.426Z,2.92
2019-02-25T12:26:34.969Z,1.80
2019-02-25T12:27:39.959Z,5.62
2019-02-25T12:28:44.738Z,4.20
2019-02-25T12:29:49.715Z,4.45
2019-02-25T12:30:54.708Z,3.67
2019-02-25T12:31:59.931Z,2.00
2019-02-25T12:33:05.186Z,4.03
2019-02-25T12:34:10.300Z,3.22
2019-02-25T12:35:14.994Z,3.52
2019-02-25T12:36:19.944Z,3.02
2019-02-25T12:37:24.930Z,4.40
2019-02-25T12:38:30.236Z,4.40
2019-02-25T12:39:35.576Z,4.00
2019-02-25T12:40:41.108Z,5.10
2019-02-25T12:41:46.626Z,3.77
2019-02-25T12:42:51.874Z,2.55
2019-02-25T12:43:56.963Z,3.08
2019-02-25T12:45:02.159Z,3.37
2019-02-25T12:46:07.448Z,3.98
2019-02-25T12:47:12.717Z,4.40
2019-02-25T12:48:17.655Z,4.15
2019-02-25T12:49:22.924Z,3.92
2019-02-25T12:50:27.825Z,2.67
2019-02-25T12:51:33.371Z,3.83
2019-02-25T12:52:38.336Z,3.55
2019-02-25T12:53:43.299Z,2.85
2019-02-25T12:54:48.543Z,4.58
2019-02-25T12:55:53.785Z,5.40
2019-02-25T12:56:58.758Z,6.35
2019-02-25T12:58:03.698Z,3.20
2019-02-25T12:59:08.667Z,4.17
2019-02-25T13:00:14.743Z,3.62
2019-02-25T13:01:20.002Z,3.30
2019-02-25T13:02:24.943Z,6.47
2019-02-25T13:03:30.159Z,2.55
2019-02-25T13:04:34.891Z,5.30
2019-02-25T13:05:39.841Z,3.10
2019-02-25T13:06:44.568Z,5.47
2019-02-25T13:07:49.588Z,3.42
2019-02-25T13:08:54.272Z,2.90
2019-02-25T13:09:59.247Z,5.42
2019-02-25T13:11:04.789Z,3.52
2019-02-25T13:12:10.084Z,4.22
2019-02-25T13:13:15.041Z,4.42
2019-02-25T13:14:20.215Z,3.87
2019-02-25T13:15:25.195Z,4.97
2019-02-25T13:16:30.426Z,3.58
2019-02-25T13:17:35.655Z,3.62
2019-02-25T13:18:40.729Z,3.67
2019-02-25T13:19:45.954Z,4.20
2019-02-25T13:20:51.220Z,5.55
2019-02-25T13:21:56.202Z,4.15
2019-02-25T13:23:01.419Z,5.50
2019-02-25T13:24:07.515Z,4.50
2019-02-25T13:25:13.810Z,6.40
2019-02-25T13:26:19.068Z,5.35
2019-02-25T13:27:24.340Z,3.08
2019-02-25T13:28:30.699Z,3.55
2019-02-25T13:29:35.172Z,2.22
2019-02-25T13:30:39.890Z,10.08
2019-02-25T13:31:45.203Z,9.73
2019-02-25T13:32:50.482Z,7.92
2019-02-25T13:33:55.219Z,6.67
2019-02-25T13:35:00.270Z,3.72
2019-02-25T13:36:11.029Z,5.35
2019-02-25T13:37:16.034Z,3.87
2019-02-25T13:38:21.320Z,4.17
2019-02-25T13:39:26.268Z,3.62
2019-02-25T13:40:31.526Z,5.47
2019-02-25T13:41:36.528Z,5.05
2019-02-25T13:42:41.606Z,4.83
2019-02-25T13:43:47.460Z,2.65
2019-02-25T13:44:52.164Z,3.87
2019-02-25T13:45:57.471Z,6.10
2019-02-25T13:47:02.419Z,6.25
2019-02-25T13:48:09.507Z,6.80
2019-02-25T13:49:14.194Z,2.83
2019-02-25T13:50:19.226Z,3.35
2019-02-25T13:51:24.194Z,4.25
2019-02-25T13:52:29.195Z,5.65
2019-02-25T13:53:34.134Z,2.62
2019-02-25T13:54:39.121Z,3.90
2019-02-25T13:55:44.102Z,5.00
2019-02-25T13:56:49.455Z,4.80
2019-02-25T13:57:54.478Z,4.78
2019-02-25T13:58:59.378Z,4.05
2019-02-25T14:00:04.349Z,5.30
2019-02-25T14:01:13.418Z,4.62
2019-02-25T14:02:18.414Z,4.35
2019-02-25T14:03:23.434Z,4.58
2019-02-25T14:04:28.779Z,5.40
2019-02-25T14:05:34.040Z,4.60
2019-02-25T14:06:39.013Z,2.95
2019-02-25T14:07:44.304Z,7.17
2019-02-25T14:08:49.278Z,4.05
2019-02-25T14:09:53.964Z,6.70
2019-02-25T14:10:58.949Z,4.35
2019-02-25T14:12:03.639Z,6.37
2019-02-25T14:13:08.988Z,3.58
2019-02-25T14:14:13.970Z,5.28
2019-02-25T14:15:19.267Z,5.78
2019-02-25T14:16:24.019Z,3.42
2019-02-25T14:17:28.813Z,3.58
2019-02-25T14:18:33.987Z,7.47
2019-02-25T14:19:39.577Z,3.85
2019-02-25T14:20:44.300Z,4.42
2019-02-25T14:21:49.284Z,2.85
2019-02-25T14:22:54.686Z,4.80
2019-02-25T14:23:59.913Z,3.75
2019-02-25T14:25:05.325Z,9.25
2019-02-25T14:26:10.284Z,7.12
2019-02-25T14:27:15.346Z,4.92
2019-02-25T14:28:20.656Z,6.92
2019-02-25T14:29:26.452Z,3.77
2019-02-25T14:30:33.437Z,6.72
2019-02-25T14:31:37.760Z,6.60
2019-02-25T14:32:43.271Z,6.70
2019-02-25T14:33:51.943Z,6.03
2019-02-25T14:34:54.397Z,3.87
2019-02-25T14:35:59.678Z,3.05
2019-02-25T14:37:04.886Z,4.10
2019-02-25T14:38:14.659Z,5.42
2019-02-25T14:39:27.845Z,7.60
2019-02-25T14:40:32.533Z,5.45
2019-02-25T14:41:37.984Z,4.00
2019-02-25T14:42:44.827Z,5.20
2019-02-25T14:43:51.100Z,6.50
2019-02-25T14:44:56.367Z,4.28
2019-02-25T14:46:04.833Z,2.90
2019-02-25T14:47:19.519Z,3.58
2019-02-25T14:48:20.450Z,7.78
2019-02-25T14:49:23.170Z,3.65
2019-02-25T14:50:28.076Z,2.92